createdAt,value
2023-04-14T00:01:14.676Z,84
2023-04-14T00:04:14.755Z,84
2023-04-14T00:07:14.676Z,84
2023-04-14T00:10:14.666Z,84
2023-04-14T00:13:14.674Z,84
2023-04-14T00:16:14.674Z,84
2023-04-14T00:19:14.697Z,84
2023-04-14T00:22:14.673Z,84
2023-04-14T00:25:14.720Z,84
2023-04-14T00:28:14.669Z,84
2023-04-14T00:31:14.711Z,84
2023-04-14T00:34:14.665Z,84
2023-04-14T00:37:14.664Z,84
2023-04-14T00:40:14.676Z,84
2023-04-14T00:43:14.669Z,84
2023-04-14T00:46:14.689Z,84
2023-04-14T00:49:14.683Z,84
2023-04-14T00:52:14.663Z,84
2023-04-14T00:55:14.662Z,84
2023-04-14T00:58:14.775Z,84
2023-04-14T01:01:14.882Z,84
2023-04-14T01:04:14.698Z,84
2023-04-14T01:07:14.660Z,84
2023-04-14T01:10:14.675Z,84
2023-04-14T01:13:14.655Z,84
2023-04-14T01:16:14.704Z,84
2023-04-14T01:19:14.649Z,84
2023-04-14T01:22:14.657Z,84
2023-04-14T01:25:14.639Z,84
2023-04-14T01:28:14.652Z,84
2023-04-14T01:31:14.705Z,84
2023-04-14T01:34:14.644Z,84
2023-04-14T01:37:14.646Z,84
2023-04-14T01:40:14.648Z,84
2023-04-14T01:43:14.650Z,84
2023-04-14T01:46:14.672Z,84
2023-04-14T01:49:14.648Z,84
2023-04-14T01:52:14.640Z,84
2023-04-14T01:55:14.630Z,84
2023-04-14T02:01:14.692Z,84
2023-04-14T02:04:14.741Z,84
2023-04-14T02:07:14.636Z,84
2023-04-14T02:10:14.640Z,84
2023-04-14T02:13:14.627Z,84
2023-04-14T02:16:14.630Z,84
2023-04-14T02:19:14.635Z,84
2023-04-14T02:22:14.648Z,84
2023-04-14T02:25:14.652Z,84
2023-04-14T02:28:14.656Z,84
2023-04-14T02:31:14.668Z,84
2023-04-14T02:34:14.636Z,84
2023-04-14T02:37:14.620Z,84
2023-04-14T02:40:14.643Z,84
2023-04-14T02:43:14.631Z,84
2023-04-14T02:46:14.657Z,84
2023-04-14T02:49:14.629Z,84
2023-04-14T02:52:14.627Z,84
2023-04-14T02:55:14.619Z,84
2023-04-14T02:58:14.630Z,85
2023-04-14T03:01:14.667Z,85
2023-04-14T03:04:14.651Z,85
2023-04-14T03:07:14.634Z,85
2023-04-14T03:10:14.616Z,85
2023-04-14T03:13:14.623Z,85
2023-04-14T03:16:14.671Z,85
2023-04-14T03:19:14.635Z,85
2023-04-14T03:22:14.612Z,85
2023-04-14T03:25:14.620Z,85
2023-04-14T03:28:14.609Z,85
2023-04-14T03:31:14.694Z,85
2023-04-14T03:34:14.608Z,85
2023-04-14T03:37:14.607Z,85
2023-04-14T03:40:14.595Z,85
2023-04-14T03:43:14.600Z,85
2023-04-14T03:46:14.635Z,85
2023-04-14T03:49:14.594Z,85
2023-04-14T03:52:14.595Z,85
2023-04-14T03:55:14.605Z,85
2023-04-14T03:58:14.587Z,85
2023-04-14T04:01:14.596Z,85
2023-04-14T04:04:14.756Z,85
2023-04-14T04:07:14.599Z,85
2023-04-14T04:10:14.587Z,85
2023-04-14T04:13:14.592Z,85
2023-04-14T04:16:14.612Z,85
2023-04-14T04:19:14.584Z,85
2023-04-14T04:22:14.591Z,84
2023-04-14T04:25:14.599Z,85
2023-04-14T04:28:14.580Z,85
2023-04-14T04:31:14.581Z,85
2023-04-14T04:34:14.582Z,85
2023-04-14T04:37:14.592Z,85
2023-04-14T04:40:14.580Z,85
2023-04-14T04:43:14.585Z,85
2023-04-14T04:46:14.575Z,84
2023-04-14T04:49:14.581Z,84
2023-04-14T04:52:14.577Z,84
2023-04-14T04:55:14.587Z,84
2023-04-14T04:58:14.572Z,85
2023-04-14T05:01:14.586Z,85
2023-04-14T05:04:14.600Z,85
2023-04-14T05:07:14.578Z,85
2023-04-14T05:10:14.577Z,85
2023-04-14T05:13:14.568Z,85
2023-04-14T05:16:14.606Z,85
2023-04-14T05:19:14.571Z,85
2023-04-14T05:22:14.579Z,85
2023-04-14T05:25:14.576Z,85
2023-04-14T05:28:14.563Z,85
2023-04-14T05:31:14.602Z,85
2023-04-14T05:34:14.565Z,85
2023-04-14T05:37:14.581Z,85
2023-04-14T05:40:14.564Z,85
2023-04-14T05:43:14.564Z,85
2023-04-14T05:46:14.586Z,84
2023-04-14T05:49:14.551Z,84
2023-04-14T05:52:14.584Z,84
2023-04-14T05:55:14.570Z,84
2023-04-14T05:58:14.554Z,84
2023-04-14T06:04:14.883Z,84
2023-04-14T06:07:14.600Z,84
2023-04-14T06:10:14.605Z,84
2023-04-14T06:13:14.594Z,84
2023-04-14T06:16:14.615Z,84
2023-04-14T06:19:14.866Z,84
2023-04-14T06:22:14.684Z,84
2023-04-14T06:25:14.681Z,84
2023-04-14T06:28:14.714Z,84
2023-04-14T06:31:14.734Z,84
2023-04-14T06:34:14.900Z,84
2023-04-14T06:37:14.692Z,84
2023-04-14T06:40:14.697Z,84
2023-04-14T06:46:14.712Z,84
2023-04-14T06:49:14.741Z,84
2023-04-14T06:52:14.873Z,84
2023-04-14T06:55:14.720Z,84
2023-04-14T06:58:14.733Z,84
2023-04-14T07:01:14.792Z,84
2023-04-14T07:04:14.828Z,84
2023-04-14T07:07:14.753Z,84
2023-04-14T07:10:14.731Z,84
2023-04-14T07:13:14.709Z,84
2023-04-14T07:16:14.748Z,84
2023-04-14T07:19:14.749Z,84
2023-04-14T07:22:14.747Z,84
2023-04-14T07:25:14.742Z,84
2023-04-14T07:28:14.741Z,84
2023-04-14T07:31:14.802Z,84
2023-04-14T07:34:14.794Z,84
2023-04-14T07:37:14.740Z,83
2023-04-14T07:40:14.741Z,83
2023-04-14T07:43:14.724Z,83
2023-04-14T07:46:14.723Z,83
2023-04-14T07:49:14.785Z,83
2023-04-14T07:52:14.741Z,83
2023-04-14T07:55:14.735Z,83
2023-04-14T07:58:15.838Z,83
2023-04-14T08:01:14.743Z,83
2023-04-14T08:07:14.733Z,83
2023-04-14T08:10:14.727Z,83
2023-04-14T08:13:14.731Z,83
2023-04-14T08:16:14.774Z,83
2023-04-14T08:19:14.757Z,83
2023-04-14T08:22:14.734Z,83
2023-04-14T08:25:14.749Z,83
2023-04-14T08:28:14.730Z,83
2023-04-14T08:31:14.781Z,83
2023-04-14T08:34:16.824Z,83
2023-04-14T08:37:14.729Z,83
2023-04-14T08:40:14.728Z,83
2023-04-14T08:43:15.509Z,83
2023-04-14T08:46:14.780Z,82
2023-04-14T08:49:14.748Z,82
2023-04-14T08:52:14.725Z,82
2023-04-14T08:55:14.743Z,82
2023-04-14T09:01:14.762Z,82
2023-04-14T09:04:15.039Z,82
2023-04-14T09:07:14.736Z,82
2023-04-14T09:10:14.730Z,82
2023-04-14T09:13:14.724Z,82
2023-04-14T09:16:14.774Z,82
2023-04-14T09:19:14.738Z,82
2023-04-14T09:22:14.718Z,82
2023-04-14T09:25:14.715Z,82
2023-04-14T09:28:14.716Z,82
2023-04-14T09:31:14.812Z,82
2023-04-14T09:34:14.771Z,82
2023-04-14T09:37:16.487Z,82
2023-04-14T09:40:14.919Z,82
2023-04-14T09:43:14.880Z,82
2023-04-14T09:46:14.880Z,82
2023-04-14T09:49:14.864Z,82
2023-04-14T09:52:14.848Z,82
2023-04-14T09:55:14.853Z,82
2023-04-14T09:58:14.859Z,82
2023-04-14T10:01:14.910Z,82
2023-04-14T10:04:14.863Z,81
2023-04-14T10:07:14.855Z,81
2023-04-14T10:13:14.847Z,81
2023-04-14T10:16:14.942Z,81
2023-04-14T10:19:14.830Z,81
2023-04-14T10:22:14.851Z,81
2023-04-14T10:25:14.851Z,81
2023-04-14T10:28:14.844Z,81
2023-04-14T10:31:14.859Z,81
2023-04-14T10:34:14.867Z,80
2023-04-14T10:37:14.850Z,80
2023-04-14T10:40:14.858Z,80
2023-04-14T10:43:14.859Z,80
2023-04-14T10:46:15.342Z,80
2023-04-14T10:49:14.873Z,80
2023-04-14T10:55:14.853Z,79
2023-04-14T10:58:14.842Z,79
2023-04-14T11:01:14.913Z,79
2023-04-14T11:04:15.016Z,78
2023-04-14T11:07:14.891Z,78
2023-04-14T11:10:14.888Z,78
2023-04-14T11:13:16.053Z,78
2023-04-14T11:16:14.916Z,77
2023-04-14T11:19:14.905Z,77
2023-04-14T11:22:14.904Z,77
2023-04-14T11:25:14.918Z,77
2023-04-14T11:28:14.894Z,76
2023-04-14T11:31:14.905Z,76
2023-04-14T11:34:14.901Z,75
2023-04-14T11:37:14.910Z,75
2023-04-14T11:40:14.889Z,75
2023-04-14T11:43:14.898Z,74
2023-04-14T11:46:14.913Z,74
2023-04-14T11:49:14.889Z,74
2023-04-14T11:52:14.892Z,74
2023-04-14T11:55:14.887Z,74
2023-04-14T11:58:14.886Z,73
2023-04-14T12:01:15.144Z,73
2023-04-14T12:04:14.995Z,73
2023-04-14T12:07:14.915Z,73
2023-04-14T12:10:14.966Z,72
2023-04-14T12:13:14.894Z,72
2023-04-14T12:16:14.982Z,71
2023-04-14T12:19:14.895Z,71
2023-04-14T12:22:14.884Z,71
2023-04-14T12:25:14.900Z,70
2023-04-14T12:28:14.880Z,70
2023-04-14T12:31:14.911Z,70
2023-04-14T12:34:14.893Z,70
2023-04-14T12:37:14.890Z,69
2023-04-14T12:40:14.934Z,69
2023-04-14T12:43:14.884Z,69
2023-04-14T12:46:14.892Z,69
2023-04-14T12:49:14.869Z,68
2023-04-14T12:52:14.879Z,68
2023-04-14T12:55:14.891Z,68
2023-04-14T12:58:14.875Z,68
2023-04-14T13:01:14.925Z,67
2023-04-14T13:04:14.918Z,67
2023-04-14T13:10:14.879Z,67
2023-04-14T13:13:14.868Z,66
2023-04-14T13:16:16.524Z,66
2023-04-14T13:19:14.882Z,66
2023-04-14T13:22:14.876Z,66
2023-04-14T13:31:14.932Z,65
2023-04-14T13:34:15.019Z,65
2023-04-14T13:37:14.879Z,65
2023-04-14T13:40:14.885Z,65
2023-04-14T13:43:14.887Z,65
2023-04-14T13:46:15.156Z,65
2023-04-14T13:49:14.864Z,65
2023-04-14T13:52:14.874Z,65
2023-04-14T13:55:14.884Z,65
2023-04-14T13:58:14.908Z,64
2023-04-14T14:01:14.892Z,64
2023-04-14T14:04:14.909Z,64
2023-04-14T14:07:14.869Z,64
2023-04-14T14:10:14.889Z,64
2023-04-14T14:13:15.911Z,64
2023-04-14T14:16:20.326Z,63
2023-04-14T14:19:15.727Z,63
2023-04-14T14:22:14.869Z,63
2023-04-14T14:25:19.072Z,63
2023-04-14T14:28:14.865Z,62
2023-04-14T14:31:14.889Z,62
2023-04-14T14:34:14.870Z,62
2023-04-14T14:37:14.873Z,62
2023-04-14T14:40:14.872Z,62
2023-04-14T14:43:14.890Z,61
2023-04-14T14:46:14.898Z,61
2023-04-14T14:52:14.858Z,61
2023-04-14T14:55:14.806Z,60
2023-04-14T14:58:14.806Z,60
2023-04-14T15:01:14.805Z,60
2023-04-14T15:04:14.841Z,60
2023-04-14T15:07:14.817Z,60
2023-04-14T15:10:14.814Z,60
2023-04-14T15:13:14.933Z,59
2023-04-14T15:16:14.870Z,60
2023-04-14T15:19:14.845Z,59
2023-04-14T15:22:14.849Z,59
2023-04-14T15:25:14.857Z,59
2023-04-14T15:28:14.849Z,59
2023-04-14T15:31:14.849Z,59
2023-04-14T15:34:14.853Z,59
2023-04-14T15:37:14.869Z,59
2023-04-14T15:40:14.876Z,59
2023-04-14T15:43:14.883Z,59
2023-04-14T15:46:15.028Z,59
2023-04-14T15:49:14.871Z,59
2023-04-14T15:52:14.864Z,59
2023-04-14T15:55:14.862Z,59
2023-04-14T15:58:14.848Z,59
2023-04-14T16:01:14.891Z,59
2023-04-14T16:04:15.117Z,59
2023-04-14T16:07:14.855Z,59
2023-04-14T16:10:14.856Z,59
2023-04-14T16:13:14.884Z,59
2023-04-14T16:16:14.894Z,59
2023-04-14T16:19:14.863Z,59
2023-04-14T16:22:14.860Z,59
2023-04-14T16:25:14.860Z,60
2023-04-14T16:28:14.849Z,60
2023-04-14T16:31:14.904Z,60
2023-04-14T16:34:14.874Z,60
2023-04-14T16:40:14.883Z,60
2023-04-14T16:43:15.120Z,60
2023-04-14T16:46:14.899Z,60
2023-04-14T16:49:14.880Z,60
2023-04-14T16:52:14.857Z,60
2023-04-14T16:55:14.846Z,60
2023-04-14T16:58:14.842Z,60
2023-04-14T17:01:14.866Z,60
2023-04-14T17:04:15.032Z,60
2023-04-14T17:07:14.828Z,60
2023-04-14T17:10:14.817Z,60
2023-04-14T17:13:14.812Z,60
2023-04-14T17:16:14.830Z,60
2023-04-14T17:19:14.805Z,60
2023-04-14T17:22:14.804Z,60
2023-04-14T17:25:14.806Z,60
2023-04-14T17:28:14.807Z,60
2023-04-14T17:31:14.833Z,60
2023-04-14T17:34:14.801Z,60
2023-04-14T17:37:14.802Z,60
2023-04-14T17:40:14.800Z,60
2023-04-14T17:43:14.801Z,60
2023-04-14T17:46:14.826Z,60
2023-04-14T17:49:14.805Z,60
2023-04-14T17:52:14.792Z,60
2023-04-14T17:55:14.801Z,60
2023-04-14T17:58:14.801Z,60
2023-04-14T18:01:14.870Z,60
2023-04-14T18:04:14.852Z,60
2023-04-14T18:07:14.820Z,60
2023-04-14T18:10:14.832Z,60
2023-04-14T18:13:14.829Z,60
2023-04-14T18:16:14.819Z,60
2023-04-14T18:22:14.808Z,60
2023-04-14T18:25:14.809Z,60
2023-04-14T18:28:14.799Z,60
2023-04-14T18:31:14.814Z,60
2023-04-14T18:34:14.809Z,60
2023-04-14T18:37:14.801Z,60
2023-04-14T18:40:14.812Z,60
2023-04-14T18:43:14.811Z,60
2023-04-14T18:46:14.807Z,60
2023-04-14T18:49:14.809Z,61
2023-04-14T18:52:14.801Z,61
2023-04-14T18:55:14.808Z,61
2023-04-14T18:58:14.788Z,61
2023-04-14T19:01:14.830Z,61
2023-04-14T19:04:14.977Z,61
2023-04-14T19:07:14.788Z,62
2023-04-14T19:10:14.779Z,62
2023-04-14T19:13:14.789Z,62
2023-04-14T19:16:14.876Z,62
2023-04-14T19:19:14.804Z,62
2023-04-14T19:22:14.789Z,62
2023-04-14T19:25:14.792Z,63
2023-04-14T19:28:14.787Z,63
2023-04-14T19:31:14.832Z,63
2023-04-14T19:34:14.814Z,63
2023-04-14T19:37:14.790Z,63
2023-04-14T19:40:14.791Z,63
2023-04-14T19:43:15.160Z,63
2023-04-14T19:46:14.794Z,64
2023-04-14T19:49:14.779Z,64
2023-04-14T19:52:14.769Z,64
2023-04-14T19:55:14.780Z,64
2023-04-14T19:58:14.778Z,64
2023-04-14T20:01:14.818Z,65
2023-04-14T20:04:14.846Z,65
2023-04-14T20:07:14.776Z,65
2023-04-14T20:10:14.774Z,65
2023-04-14T20:13:15.974Z,65
2023-04-14T20:16:14.778Z,65
2023-04-14T20:19:14.768Z,65
2023-04-14T20:22:14.774Z,65
2023-04-14T20:25:14.777Z,65
2023-04-14T20:28:14.765Z,65
2023-04-14T20:31:14.779Z,65
2023-04-14T20:34:14.762Z,65
2023-04-14T20:37:14.765Z,65
2023-04-14T20:40:14.759Z,65
2023-04-14T20:43:14.795Z,66
2023-04-14T20:46:14.861Z,66
2023-04-14T20:49:14.830Z,66
2023-04-14T20:52:14.778Z,66
2023-04-14T20:55:14.788Z,66
2023-04-14T20:58:14.803Z,66
2023-04-14T21:01:14.790Z,66
2023-04-14T21:04:14.874Z,66
2023-04-14T21:07:14.776Z,66
2023-04-14T21:10:14.805Z,66
2023-04-14T21:13:49.669Z,66
2023-04-14T21:16:14.875Z,66
2023-04-14T21:19:14.784Z,67
2023-04-14T21:22:14.784Z,67
2023-04-14T21:25:14.785Z,67
2023-04-14T21:28:14.766Z,67
2023-04-14T21:31:14.797Z,67
2023-04-14T21:34:14.771Z,67
2023-04-14T21:37:14.761Z,67
2023-04-14T21:40:14.766Z,68
2023-04-14T21:43:14.770Z,68
2023-04-14T21:46:14.793Z,68
2023-04-14T21:49:14.779Z,68
2023-04-14T21:52:14.762Z,68
2023-04-14T21:55:14.805Z,68
2023-04-14T21:58:14.769Z,68
2023-04-14T22:01:14.871Z,68
2023-04-14T22:04:22.306Z,68
2023-04-14T22:07:14.765Z,68
2023-04-14T22:10:14.761Z,69
2023-04-14T22:13:14.770Z,69
2023-04-14T22:16:14.781Z,69
2023-04-14T22:19:14.751Z,69
2023-04-14T22:22:14.765Z,69
2023-04-14T22:25:14.765Z,69
2023-04-14T22:28:14.767Z,69
2023-04-14T22:31:14.832Z,69
2023-04-14T22:34:14.761Z,69
2023-04-14T22:37:14.758Z,69
2023-04-14T22:40:14.770Z,69
2023-04-14T22:43:14.756Z,69
2023-04-14T22:46:14.756Z,70
2023-04-14T22:49:14.759Z,70
2023-04-14T22:52:14.765Z,70
2023-04-14T22:55:14.760Z,70
2023-04-14T22:58:14.754Z,70
2023-04-14T23:04:14.817Z,70
2023-04-14T23:07:14.757Z,70
2023-04-14T23:10:14.764Z,70
2023-04-14T23:13:14.755Z,70
2023-04-14T23:16:14.762Z,70
2023-04-14T23:19:14.745Z,70
2023-04-14T23:22:14.734Z,71
2023-04-14T23:25:14.736Z,71
2023-04-14T23:28:14.725Z,71
2023-04-14T23:31:14.750Z,71
2023-04-14T23:34:14.729Z,71
2023-04-14T23:37:14.729Z,71
2023-04-14T23:40:14.732Z,71
2023-04-14T23:43:14.716Z,71
2023-04-14T23:46:14.753Z,71
2023-04-14T23:49:23.943Z,71
2023-04-14T23:52:14.732Z,71
2023-04-14T23:55:14.725Z,71
2023-04-14T23:58:25.402Z,71
